Aérodrome :
LOGIN :

S'inscrire | Disclaimer

   EN    FR    IT 

 










Légende :    VFR   VFR Marginal   IFR   IFR Intensif   IFR Très Intensif
Visi : 
Plafond : 
>= 8 km
>= 3000ft
5 à 8 km
1000 à 3000 ft
1500m à 5 km
500 à 1000 ft
800 à 1500m
200 à 500 ft
< 800m
< 200 ft
Symboles :   Orages  Brouillard  Fortes neiges  Fortes précipitations  Vent > 20 kt
SIGMETs :   Divers  Orages  Givrage  Turbulence  Onde Orograph.  Cendres Volcan.







- Altitude de l'aérodrome : 124 ft
- Code IATA : AVN
- Voir les cartes d'approche


LFMV - Avignon Caumont

DERNIER METAR :
  • 260100Z AUTO 36020KT CAVOK 00/M11 Q1010

METARs EXPIRÉS :
  • 260030Z AUTO 36021KT CAVOK 00/M11 Q1010
  • 260000Z AUTO 36022G35KT CAVOK 00/M10 Q1010
  • 252330Z AUTO 36017G27KT CAVOK 01/M10 Q1010
  • 252300Z AUTO 36015G25KT CAVOK 01/M10 Q1010
  • 252230Z AUTO 35019G29KT CAVOK 01/M09 Q1010

TAF AMD TAF LFMV
Valide du 25 à 18h jusqu'au 26 à 15h UTC


251829Z 2518/2615 35025KT CAVOK
TEMPO 2518/2520 34030G40KT
TEMPO 2520/2615 35027G37KT
ATIS : +33 4 90 84 32 84
Pas de NOTAMs connus pour ce terrain.
1 SIGMET publié pour la FIR Marseille (LFMM) :
 
Turbulence forte
LFMM SIGMET 5 VALID 260000/260400 LFPW
LFMM MARSEILLE FIR/UIR SEV TURB FCST WI N4500 E00415 - N4500 E00515 - N4230 E00530 - N4230 E00415 - N4500 E00415 SFC/FL050 STNR NC=



MET'MAP, la Météo Aéronautique d'un coup d'oeil ! - Copyright ORBIFLY Décembre 2007 - Disclaimer

ORBIFLY MET'MAP TEAM :

Programmation & Développement : Alexandra Zaïnal
Conception & Développement : Baudouin d'Aumeries
Co-Programmation & Développement : Marc-Olivier Méhu
Soutien technique & logistique : Manuel Goepfert

Contact : metmap@orbifly.com




SOURCES & CREDITS :

   NOAA